createdAt,value
2018-07-04T00:00:35.877Z,934.34
2018-07-04T00:01:35.821Z,934.38
2018-07-04T00:02:35.751Z,934.31
2018-07-04T00:03:35.717Z,934.34
2018-07-04T00:04:35.689Z,934.34
2018-07-04T00:05:35.616Z,934.34
2018-07-04T00:06:35.592Z,934.37
2018-07-04T00:07:35.549Z,934.35
2018-07-04T00:08:35.488Z,934.39
2018-07-04T00:09:35.440Z,934.39
2018-07-04T00:10:35.378Z,934.44
2018-07-04T00:11:35.363Z,934.46
2018-07-04T00:12:35.315Z,934.45
2018-07-04T00:13:35.250Z,934.41
2018-07-04T00:14:35.217Z,934.45
2018-07-04T00:15:35.155Z,934.50
2018-07-04T00:16:35.099Z,934.42
2018-07-04T00:17:35.059Z,934.44
2018-07-04T00:18:35.010Z,934.42
2018-07-04T00:19:34.964Z,934.47
2018-07-04T00:20:34.944Z,934.45
2018-07-04T00:21:34.902Z,934.46
2018-07-04T00:22:34.849Z,934.45
2018-07-04T00:23:34.790Z,934.50
2018-07-04T00:24:34.736Z,934.53
2018-07-04T00:25:34.700Z,934.59
2018-07-04T00:26:34.629Z,934.52
2018-07-04T00:27:34.596Z,934.56
2018-07-04T00:28:34.538Z,934.55
2018-07-04T00:29:34.517Z,934.52
2018-07-04T00:30:34.459Z,934.55
2018-07-04T00:31:34.427Z,934.51
2018-07-04T00:32:34.360Z,934.53
2018-07-04T00:33:34.311Z,934.52
2018-07-04T00:34:34.278Z,934.54
2018-07-04T00:35:34.244Z,934.55
2018-07-04T00:36:34.172Z,934.50
2018-07-04T00:37:34.142Z,934.56
2018-07-04T00:38:34.086Z,934.50
2018-07-04T00:39:34.032Z,934.58
2018-07-04T00:40:33.985Z,934.52
2018-07-04T00:41:33.964Z,934.54
2018-07-04T00:42:33.919Z,934.60
2018-07-04T00:43:33.869Z,934.54
2018-07-04T00:44:33.798Z,934.52
2018-07-04T00:45:33.765Z,934.54
2018-07-04T00:46:33.699Z,934.55
2018-07-04T00:47:33.664Z,934.55
2018-07-04T00:48:33.624Z,934.58
2018-07-04T00:49:33.587Z,934.54
2018-07-04T00:50:33.532Z,934.55
2018-07-04T00:51:33.500Z,934.53
2018-07-04T00:52:33.437Z,934.54
2018-07-04T00:53:33.384Z,934.54
2018-07-04T00:54:33.330Z,934.47
2018-07-04T00:55:33.283Z,934.45
2018-07-04T00:56:33.241Z,934.50
2018-07-04T00:57:33.200Z,934.50
2018-07-04T00:58:33.138Z,934.53
2018-07-04T00:59:33.093Z,934.51
2018-07-04T01:00:33.075Z,934.53
2018-07-04T01:01:33.022Z,934.56
2018-07-04T01:02:32.959Z,934.57
2018-07-04T01:03:32.914Z,934.53
2018-07-04T01:04:32.888Z,934.53
2018-07-04T01:05:32.825Z,934.57
2018-07-04T01:06:32.785Z,934.56
2018-07-04T01:07:32.731Z,934.54
2018-07-04T01:08:32.684Z,934.53
2018-07-04T01:09:32.628Z,934.58
2018-07-04T01:10:32.594Z,934.54
2018-07-04T01:11:32.550Z,934.56
2018-07-04T01:12:32.500Z,934.55
2018-07-04T01:13:32.440Z,934.55
2018-07-04T01:14:32.401Z,934.55
2018-07-04T01:15:32.376Z,934.52
2018-07-04T01:16:32.301Z,934.52
2018-07-04T01:17:32.258Z,934.53
2018-07-04T01:18:32.212Z,934.49
2018-07-04T01:19:32.170Z,934.55
2018-07-04T01:20:32.125Z,934.52
2018-07-04T01:21:32.066Z,934.50
2018-07-04T01:22:32.046Z,934.45
2018-07-04T01:23:31.981Z,934.47
2018-07-04T01:24:31.934Z,934.45
2018-07-04T01:25:31.896Z,934.46
2018-07-04T01:26:31.865Z,934.45
2018-07-04T01:27:31.787Z,934.43
2018-07-04T01:28:31.745Z,934.45
2018-07-04T01:29:31.714Z,934.42
2018-07-04T01:30:31.667Z,934.46
2018-07-04T01:31:31.628Z,934.44
2018-07-04T01:32:31.555Z,934.41
2018-07-04T01:33:31.514Z,934.35
2018-07-04T01:34:31.469Z,934.40
2018-07-04T01:35:31.432Z,934.34
2018-07-04T01:36:31.385Z,934.36
2018-07-04T01:37:31.335Z,934.38
2018-07-04T01:38:31.281Z,934.37
2018-07-04T01:39:31.241Z,934.40
2018-07-04T01:40:31.194Z,934.38
2018-07-04T01:41:31.160Z,934.38
2018-07-04T01:42:31.104Z,934.35
2018-07-04T01:43:31.048Z,934.39
2018-07-04T01:44:30.995Z,934.42
2018-07-04T01:45:30.958Z,934.44
2018-07-04T01:46:30.941Z,934.48
2018-07-04T01:47:30.856Z,934.47
2018-07-04T01:48:30.829Z,934.52
2018-07-04T01:49:30.774Z,934.54
2018-07-04T01:50:30.750Z,934.55
2018-07-04T01:51:30.725Z,934.48
2018-07-04T01:52:30.655Z,934.53
2018-07-04T01:53:30.608Z,934.52
2018-07-04T01:54:30.567Z,934.50
2018-07-04T01:55:30.498Z,934.44
2018-07-04T01:56:30.469Z,934.46
2018-07-04T01:57:30.422Z,934.50
2018-07-04T01:58:30.351Z,934.49
2018-07-04T01:59:30.328Z,934.49
2018-07-04T02:00:30.251Z,934.50
2018-07-04T02:01:30.228Z,934.45
2018-07-04T02:02:30.158Z,934.49
2018-07-04T02:03:30.121Z,934.48
2018-07-04T02:04:30.064Z,934.47
2018-07-04T02:05:30.044Z,934.51
2018-07-04T02:06:29.976Z,934.53
2018-07-04T02:07:29.944Z,934.55
2018-07-04T02:08:29.882Z,934.50
2018-07-04T02:09:29.831Z,934.53
2018-07-04T02:10:29.794Z,934.57
2018-07-04T02:11:29.744Z,934.54
2018-07-04T02:12:29.701Z,934.58
2018-07-04T02:13:29.667Z,934.46
2018-07-04T02:14:29.601Z,934.50
2018-07-04T02:15:29.555Z,934.46
2018-07-04T02:16:29.539Z,934.50
2018-07-04T02:17:29.485Z,934.45
2018-07-04T02:18:29.408Z,934.49
2018-07-04T02:19:29.387Z,934.51
2018-07-04T02:20:29.312Z,934.50
2018-07-04T02:21:29.274Z,934.50
2018-07-04T02:22:29.242Z,934.49
2018-07-04T02:23:29.184Z,934.50
2018-07-04T02:24:29.141Z,934.57
2018-07-04T02:25:29.080Z,934.57
2018-07-04T02:26:29.060Z,934.58
2018-07-04T02:27:29.020Z,934.58
2018-07-04T02:28:28.960Z,934.54
2018-07-04T02:29:28.913Z,934.51
2018-07-04T02:30:28.851Z,934.49
2018-07-04T02:31:28.800Z,934.52
2018-07-04T02:32:28.758Z,934.48
2018-07-04T02:33:28.719Z,934.49
2018-07-04T02:34:28.676Z,934.45
2018-07-04T02:35:28.612Z,934.47
2018-07-04T02:36:28.598Z,934.42
2018-07-04T02:37:28.558Z,934.43
2018-07-04T02:38:28.504Z,934.44
2018-07-04T02:39:28.431Z,934.42
2018-07-04T02:40:28.407Z,934.43
2018-07-04T02:41:28.331Z,934.46
2018-07-04T02:42:28.290Z,934.43
2018-07-04T02:43:28.253Z,934.48
2018-07-04T02:44:28.205Z,934.44
2018-07-04T02:45:28.161Z,934.43
2018-07-04T02:46:28.100Z,934.47
2018-07-04T02:47:28.056Z,934.46
2018-07-04T02:48:28.016Z,934.45
2018-07-04T02:49:27.988Z,934.45
2018-07-04T02:50:27.926Z,934.45
2018-07-04T02:51:27.868Z,934.47
2018-07-04T02:52:27.821Z,934.51
2018-07-04T02:53:27.776Z,934.45
2018-07-04T02:54:27.743Z,934.43
2018-07-04T02:55:27.684Z,934.35
2018-07-04T02:56:27.661Z,934.40
2018-07-04T02:57:27.609Z,934.39
2018-07-04T02:58:27.555Z,934.39
2018-07-04T02:59:27.502Z,934.37
2018-07-04T03:00:27.449Z,934.32
2018-07-04T03:01:27.426Z,934.32
2018-07-04T03:02:27.365Z,934.39
2018-07-04T03:03:27.298Z,934.37
2018-07-04T03:04:27.289Z,934.33
2018-07-04T03:05:27.215Z,934.33
2018-07-04T03:06:27.166Z,934.34
2018-07-04T03:07:27.131Z,934.35
2018-07-04T03:08:27.084Z,934.36
2018-07-04T03:09:27.032Z,934.38
2018-07-04T03:10:26.989Z,934.32
2018-07-04T03:11:26.947Z,934.33
2018-07-04T03:12:26.911Z,934.33
2018-07-04T03:13:26.875Z,934.37
2018-07-04T03:14:26.817Z,934.30
2018-07-04T03:15:26.745Z,934.37
2018-07-04T03:16:26.707Z,934.35
2018-07-04T03:17:26.674Z,934.38
2018-07-04T03:18:26.617Z,934.36
2018-07-04T03:19:26.569Z,934.35
2018-07-04T03:20:26.515Z,934.37
2018-07-04T03:21:26.466Z,934.36
2018-07-04T03:22:26.425Z,934.38
2018-07-04T03:23:26.394Z,934.33
2018-07-04T03:24:26.322Z,934.32
2018-07-04T03:25:26.274Z,934.35
2018-07-04T03:26:26.239Z,934.37
2018-07-04T03:27:26.191Z,934.33
2018-07-04T03:28:26.132Z,934.34
2018-07-04T03:29:26.097Z,934.37
2018-07-04T03:30:26.047Z,934.37
2018-07-04T03:31:26.020Z,934.39
2018-07-04T03:32:25.947Z,934.36
2018-07-04T03:33:25.898Z,934.39
2018-07-04T03:34:25.867Z,934.42
2018-07-04T03:35:25.810Z,934.38
2018-07-04T03:36:25.792Z,934.35
2018-07-04T03:37:25.719Z,934.34
2018-07-04T03:38:25.662Z,934.35
2018-07-04T03:39:25.629Z,934.33
2018-07-04T03:40:25.582Z,934.30
2018-07-04T03:41:25.525Z,934.34
2018-07-04T03:42:25.488Z,934.33
2018-07-04T03:43:25.445Z,934.38
2018-07-04T03:44:25.401Z,934.39
2018-07-04T03:45:25.358Z,934.35
2018-07-04T03:46:25.302Z,934.38
2018-07-04T03:47:25.259Z,934.43
2018-07-04T03:48:25.210Z,934.40
2018-07-04T03:49:25.156Z,934.39
2018-07-04T03:50:25.111Z,934.36
2018-07-04T03:51:25.069Z,934.41
2018-07-04T03:52:25.026Z,934.39
2018-07-04T03:53:24.979Z,934.41
2018-07-04T03:54:24.933Z,934.33
2018-07-04T03:55:24.902Z,934.35
2018-07-04T03:56:24.830Z,934.34
2018-07-04T03:57:24.805Z,934.31
2018-07-04T03:58:24.744Z,934.29
2018-07-04T03:59:24.715Z,934.26
2018-07-04T04:00:24.644Z,934.25
2018-07-04T04:01:24.625Z,934.30
2018-07-04T04:02:24.557Z,934.32
2018-07-04T04:03:24.519Z,934.30
2018-07-04T04:04:24.471Z,934.32
2018-07-04T04:05:24.424Z,934.33
2018-07-04T04:06:24.377Z,934.35
2018-07-04T04:07:24.436Z,934.34
2018-07-04T04:08:24.284Z,934.30
2018-07-04T04:09:24.218Z,934.35
2018-07-04T04:10:24.197Z,934.27
2018-07-04T04:11:24.162Z,934.29
2018-07-04T04:12:24.104Z,934.31
2018-07-04T04:13:24.038Z,934.25
2018-07-04T04:14:24.005Z,934.30
2018-07-04T04:15:23.968Z,934.26
2018-07-04T04:16:23.897Z,934.19
2018-07-04T04:17:23.850Z,934.26
2018-07-04T04:18:23.841Z,934.22
2018-07-04T04:19:23.751Z,934.19
2018-07-04T04:20:23.718Z,934.21
2018-07-04T04:21:23.701Z,934.17
2018-07-04T04:22:23.617Z,934.12
2018-07-04T04:23:23.585Z,934.11
2018-07-04T04:24:23.548Z,934.08
2018-07-04T04:25:23.474Z,934.11
2018-07-04T04:26:23.444Z,934.09
2018-07-04T04:27:23.375Z,934.06
2018-07-04T04:28:23.336Z,934.02
2018-07-04T04:29:23.315Z,934.06
2018-07-04T04:30:23.269Z,934.04
2018-07-04T04:31:23.232Z,934.06
2018-07-04T04:32:23.157Z,934.05
2018-07-04T04:33:23.102Z,934.04
2018-07-04T04:34:23.062Z,934.05
2018-07-04T04:35:23.019Z,934.06
2018-07-04T04:36:23.063Z,934.07
2018-07-04T04:37:22.918Z,934.11
2018-07-04T04:38:22.862Z,934.10
2018-07-04T04:39:22.823Z,934.06
2018-07-04T04:40:22.775Z,934.07
2018-07-04T04:41:22.741Z,934.11
2018-07-04T04:42:22.719Z,934.07
2018-07-04T04:43:22.639Z,934.08
2018-07-04T04:44:22.615Z,934.12
2018-07-04T04:45:22.540Z,934.06
2018-07-04T04:46:22.531Z,934.03
2018-07-04T04:47:22.454Z,934.03
2018-07-04T04:48:22.414Z,933.98
2018-07-04T04:49:22.359Z,934.02
2018-07-04T04:50:22.303Z,933.99
2018-07-04T04:51:22.258Z,934.06
2018-07-04T04:52:22.222Z,934.03
2018-07-04T04:53:22.187Z,934.02
2018-07-04T04:54:22.147Z,934.01
2018-07-04T04:55:22.099Z,933.99
2018-07-04T04:56:22.026Z,933.99
2018-07-04T04:57:22.000Z,933.99
2018-07-04T04:58:21.924Z,933.99
2018-07-04T04:59:21.887Z,933.95
2018-07-04T05:00:21.875Z,933.98
2018-07-04T05:01:21.805Z,933.95
2018-07-04T05:02:21.741Z,933.97
2018-07-04T05:03:21.701Z,933.97
2018-07-04T05:04:21.659Z,933.97
2018-07-04T05:05:21.602Z,933.95
2018-07-04T05:06:21.567Z,933.93
2018-07-04T05:07:21.535Z,933.92
2018-07-04T05:08:21.492Z,933.93
2018-07-04T05:09:21.421Z,933.95
2018-07-04T05:10:21.381Z,934.01
2018-07-04T05:11:21.340Z,933.96
2018-07-04T05:12:21.312Z,933.96
2018-07-04T05:13:21.241Z,933.89
2018-07-04T05:14:21.201Z,933.91
2018-07-04T05:15:21.160Z,933.84
2018-07-04T05:16:21.094Z,933.84
2018-07-04T05:17:21.046Z,933.86
2018-07-04T05:18:21.020Z,933.86
2018-07-04T05:19:20.979Z,933.87
2018-07-04T05:20:20.913Z,933.85
2018-07-04T05:21:20.870Z,933.81
2018-07-04T05:22:20.829Z,933.81
2018-07-04T05:23:20.782Z,933.82
2018-07-04T05:24:20.741Z,933.85
2018-07-04T05:25:20.690Z,933.82
2018-07-04T05:26:20.651Z,933.80
2018-07-04T05:27:20.596Z,933.80
2018-07-04T05:28:20.614Z,933.80
2018-07-04T05:29:20.502Z,933.75
2018-07-04T05:30:20.448Z,933.80
2018-07-04T05:31:20.414Z,933.77
2018-07-04T05:32:20.343Z,933.72
2018-07-04T05:33:20.309Z,933.72
2018-07-04T05:34:20.256Z,933.70
2018-07-04T05:35:20.208Z,933.74
2018-07-04T05:36:20.160Z,933.68
2018-07-04T05:37:20.126Z,933.72
2018-07-04T05:38:20.069Z,933.69
2018-07-04T05:39:20.057Z,933.66
2018-07-04T05:40:20.000Z,933.67
2018-07-04T05:41:19.938Z,933.66
2018-07-04T05:42:19.885Z,933.61
2018-07-04T05:43:19.858Z,933.68
2018-07-04T05:44:19.798Z,933.63
2018-07-04T05:45:19.739Z,933.64
2018-07-04T05:46:19.722Z,933.70
2018-07-04T05:47:19.645Z,933.73
2018-07-04T05:48:19.605Z,933.71
2018-07-04T05:49:19.547Z,933.68
2018-07-04T05:50:19.515Z,933.74
2018-07-04T05:51:19.459Z,933.69
2018-07-04T05:52:19.424Z,933.73
2018-07-04T05:53:19.378Z,933.71
2018-07-04T05:54:19.346Z,933.69
2018-07-04T05:55:19.317Z,933.73
2018-07-04T05:56:19.320Z,933.72
2018-07-04T05:57:19.201Z,933.70
2018-07-04T05:58:19.160Z,933.73
2018-07-04T05:59:19.084Z,933.68
2018-07-04T06:00:19.065Z,933.64
2018-07-04T06:01:19.011Z,933.69
2018-07-04T06:02:18.948Z,933.69
2018-07-04T06:03:18.917Z,933.69
2018-07-04T06:04:18.875Z,933.71
2018-07-04T06:05:18.813Z,933.67
2018-07-04T06:06:18.769Z,933.66
2018-07-04T06:07:18.732Z,933.61
2018-07-04T06:08:18.676Z,933.62
2018-07-04T06:09:18.609Z,933.54
2018-07-04T06:10:18.593Z,933.54
2018-07-04T06:11:18.552Z,933.59
2018-07-04T06:12:18.494Z,933.61
2018-07-04T06:13:18.435Z,933.66
2018-07-04T06:14:18.413Z,933.66
2018-07-04T06:15:18.344Z,933.68
2018-07-04T06:16:18.331Z,933.66
2018-07-04T06:17:18.270Z,933.68
2018-07-04T06:18:18.208Z,933.69
2018-07-04T06:19:18.174Z,933.69
2018-07-04T06:20:18.100Z,933.63
2018-07-04T06:21:18.083Z,933.63
2018-07-04T06:22:18.021Z,933.62
2018-07-04T06:23:17.964Z,933.61
2018-07-04T06:24:17.946Z,933.62
2018-07-04T06:25:17.887Z,933.60
2018-07-04T06:26:17.850Z,933.57
2018-07-04T06:27:17.785Z,933.59
2018-07-04T06:28:17.753Z,933.60
2018-07-04T06:29:17.692Z,933.58
2018-07-04T06:30:17.629Z,933.59
2018-07-04T06:31:17.586Z,933.60
2018-07-04T06:32:17.549Z,933.60
2018-07-04T06:33:17.495Z,933.55
2018-07-04T06:34:17.489Z,933.61
2018-07-04T06:35:17.425Z,933.58
2018-07-04T06:36:17.369Z,933.63
2018-07-04T06:37:17.320Z,933.60
2018-07-04T06:38:17.268Z,933.60
2018-07-04T06:39:17.218Z,933.57
2018-07-04T06:40:17.167Z,933.51
2018-07-04T06:41:17.128Z,933.57
2018-07-04T06:42:17.080Z,933.52
2018-07-04T06:43:17.052Z,933.52
2018-07-04T06:44:17.006Z,933.51
2018-07-04T06:45:16.949Z,933.55
2018-07-04T06:46:16.884Z,933.58
2018-07-04T06:47:16.839Z,933.59
2018-07-04T06:48:16.792Z,933.57
2018-07-04T06:49:16.854Z,933.54
2018-07-04T06:50:16.803Z,933.55
2018-07-04T06:51:16.654Z,933.54
2018-07-04T06:52:16.641Z,933.48
2018-07-04T06:53:16.586Z,933.46
2018-07-04T06:54:16.617Z,933.42
2018-07-04T06:55:16.480Z,933.40
2018-07-04T06:56:16.419Z,933.36
2018-07-04T06:57:16.373Z,933.39
2018-07-04T06:58:16.324Z,933.44
2018-07-04T06:59:16.321Z,933.43
2018-07-04T07:00:16.270Z,933.48
2018-07-04T07:01:16.222Z,933.51
2018-07-04T07:02:16.143Z,933.49
2018-07-04T07:03:16.103Z,933.47
2018-07-04T07:04:16.062Z,933.50
2018-07-04T07:05:16.010Z,933.50
2018-07-04T07:06:15.978Z,933.53
2018-07-04T07:07:15.919Z,933.54
2018-07-04T07:08:15.917Z,933.59
2018-07-04T07:09:15.824Z,933.57
2018-07-04T07:10:15.769Z,933.54
2018-07-04T07:11:15.723Z,933.61
2018-07-04T07:12:15.670Z,933.61
2018-07-04T07:13:15.628Z,933.62
2018-07-04T07:14:15.589Z,933.61
2018-07-04T07:15:15.557Z,933.65
2018-07-04T07:16:15.495Z,933.67
2018-07-04T07:17:15.479Z,933.61
2018-07-04T07:18:15.404Z,933.62
2018-07-04T07:19:15.354Z,933.59
2018-07-04T07:20:15.318Z,933.61
2018-07-04T07:21:15.336Z,933.60
2018-07-04T07:22:15.234Z,933.55
2018-07-04T07:23:15.188Z,933.56
2018-07-04T07:24:15.112Z,933.56
2018-07-04T07:25:15.083Z,933.53
2018-07-04T07:26:15.033Z,933.52
2018-07-04T07:27:14.991Z,933.49
2018-07-04T07:28:14.924Z,933.52
2018-07-04T07:29:14.906Z,933.51
2018-07-04T07:30:14.831Z,933.54
2018-07-04T07:31:14.802Z,933.48
2018-07-04T07:32:14.752Z,933.53
2018-07-04T07:33:14.730Z,933.52
2018-07-04T07:34:14.822Z,933.52
2018-07-04T07:35:14.632Z,933.55
2018-07-04T07:36:14.579Z,933.56
2018-07-04T07:37:14.532Z,933.54
2018-07-04T07:38:14.484Z,933.55
2018-07-04T07:39:14.428Z,933.59
2018-07-04T07:40:14.375Z,933.56
2018-07-04T07:41:14.320Z,933.59
2018-07-04T07:42:14.274Z,933.61
2018-07-04T07:43:14.236Z,933.61
2018-07-04T07:44:14.184Z,933.60
2018-07-04T07:45:14.145Z,933.64
2018-07-04T07:46:14.104Z,933.56
2018-07-04T07:47:14.058Z,933.55
2018-07-04T07:48:14.018Z,933.56
2018-07-04T07:49:13.939Z,933.58
2018-07-04T07:50:13.918Z,933.58
2018-07-04T07:51:13.852Z,933.55
2018-07-04T07:52:13.798Z,933.57
2018-07-04T07:53:13.771Z,933.55
2018-07-04T07:54:13.739Z,933.55
2018-07-04T07:55:13.683Z,933.52
2018-07-04T07:56:13.617Z,933.53
2018-07-04T07:57:13.581Z,933.54
2018-07-04T07:58:13.530Z,933.49
2018-07-04T07:59:13.489Z,933.53
2018-07-04T08:00:13.467Z,933.59
2018-07-04T08:01:13.384Z,933.56
2018-07-04T08:02:13.341Z,933.56
2018-07-04T08:03:13.288Z,933.54
2018-07-04T08:04:13.272Z,933.56
2018-07-04T08:05:13.211Z,933.57
2018-07-04T08:06:13.147Z,933.61
2018-07-04T08:07:13.121Z,933.57
2018-07-04T08:08:13.067Z,933.54
2018-07-04T08:09:13.010Z,933.56
2018-07-04T08:10:12.973Z,933.55
2018-07-04T08:11:12.950Z,933.52
2018-07-04T08:12:12.870Z,933.51
2018-07-04T08:13:12.824Z,933.52
2018-07-04T08:14:12.802Z,933.50
2018-07-04T08:15:12.751Z,933.43
2018-07-04T08:16:12.686Z,933.42
2018-07-04T08:17:12.628Z,933.42
2018-07-04T08:18:12.582Z,933.42
2018-07-04T08:19:12.565Z,933.43
2018-07-04T08:20:12.491Z,933.47
2018-07-04T08:21:12.446Z,933.41
2018-07-04T08:22:12.411Z,933.44
2018-07-04T08:23:12.378Z,933.44
2018-07-04T08:24:12.333Z,933.43
2018-07-04T08:25:12.264Z,933.42
2018-07-04T08:26:12.237Z,933.45
2018-07-04T08:27:12.189Z,933.47
2018-07-04T08:28:12.143Z,933.48
2018-07-04T08:29:12.092Z,933.51
2018-07-04T08:30:12.017Z,933.44
2018-07-04T08:31:11.983Z,933.45
2018-07-04T08:32:11.950Z,933.45
2018-07-04T08:33:11.908Z,933.42
2018-07-04T08:34:11.850Z,933.41
2018-07-04T08:35:11.809Z,933.41
2018-07-04T08:36:11.770Z,933.40
2018-07-04T08:37:11.691Z,933.49
2018-07-04T08:38:11.673Z,933.51
2018-07-04T08:39:11.638Z,933.57
2018-07-04T08:40:11.569Z,933.55
2018-07-04T08:41:11.525Z,933.60
2018-07-04T08:42:11.457Z,933.61
2018-07-04T08:43:11.412Z,933.63
2018-07-04T08:44:11.371Z,933.67
2018-07-04T08:45:11.360Z,933.69
2018-07-04T08:46:11.270Z,933.70
2018-07-04T08:47:11.255Z,933.70
2018-07-04T08:48:11.182Z,933.69
2018-07-04T08:49:11.134Z,933.66
2018-07-04T08:50:11.089Z,933.65
2018-07-04T08:51:11.151Z,933.67
2018-07-04T08:52:11.005Z,933.69
2018-07-04T08:53:10.948Z,933.67
2018-07-04T08:54:10.908Z,933.70
2018-07-04T08:55:10.882Z,933.68
2018-07-04T08:56:10.842Z,933.67
2018-07-04T08:57:10.765Z,933.72
2018-07-04T08:58:10.746Z,933.67
2018-07-04T08:59:10.679Z,933.67
2018-07-04T09:00:10.635Z,933.69
2018-07-04T09:01:10.570Z,933.70
2018-07-04T09:02:10.543Z,933.71
2018-07-04T09:03:10.504Z,933.69
2018-07-04T09:04:10.465Z,933.68
2018-07-04T09:05:10.383Z,933.73
2018-07-04T09:06:10.340Z,933.73
2018-07-04T09:07:10.301Z,933.69
2018-07-04T09:08:10.245Z,933.69
2018-07-04T09:09:10.197Z,933.70
2018-07-04T09:10:10.155Z,933.66
2018-07-04T09:11:10.114Z,933.65
2018-07-04T09:12:10.071Z,933.62
2018-07-04T09:13:10.021Z,933.59
2018-07-04T09:14:09.964Z,933.58
2018-07-04T09:15:09.920Z,933.64
2018-07-04T09:16:09.871Z,933.63
2018-07-04T09:17:09.888Z,933.71
2018-07-04T09:18:09.793Z,933.72
2018-07-04T09:19:09.743Z,933.67
2018-07-04T09:20:09.700Z,933.67
2018-07-04T09:21:09.673Z,933.60
2018-07-04T09:22:09.593Z,933.59
2018-07-04T09:23:09.557Z,933.58
2018-07-04T09:24:09.520Z,933.58
2018-07-04T09:25:09.449Z,933.55
2018-07-04T09:26:09.407Z,933.55
2018-07-04T09:27:09.367Z,933.57
2018-07-04T09:28:09.342Z,933.60
2018-07-04T09:29:09.281Z,933.61
2018-07-04T09:30:09.234Z,933.57
2018-07-04T09:31:09.184Z,933.57
2018-07-04T09:32:09.150Z,933.55
2018-07-04T09:33:09.102Z,933.50
2018-07-04T09:34:09.069Z,933.49
2018-07-04T09:35:08.996Z,933.47
2018-07-04T09:36:08.936Z,933.43
2018-07-04T09:37:08.902Z,933.38
2018-07-04T09:38:08.870Z,933.37
2018-07-04T09:39:08.814Z,933.36
2018-07-04T09:40:08.778Z,933.32
2018-07-04T09:41:08.742Z,933.25
2018-07-04T09:42:08.655Z,933.22
2018-07-04T09:43:08.636Z,933.19
2018-07-04T09:44:08.581Z,933.14
2018-07-04T09:45:08.540Z,933.13
2018-07-04T09:46:08.481Z,933.06
2018-07-04T09:47:08.420Z,933.03
2018-07-04T09:48:08.375Z,933.03
2018-07-04T09:49:08.331Z,933.09
2018-07-04T09:50:08.292Z,933.15
2018-07-04T09:51:08.232Z,933.21
2018-07-04T09:52:08.214Z,933.16
2018-07-04T09:53:08.146Z,933.21
2018-07-04T09:54:08.099Z,933.27
2018-07-04T09:55:08.051Z,933.29
2018-07-04T09:56:08.029Z,933.27
2018-07-04T09:57:07.963Z,933.30
2018-07-04T09:58:07.911Z,933.34
2018-07-04T09:59:07.885Z,933.37
2018-07-04T10:00:07.821Z,933.35
2018-07-04T10:01:07.774Z,933.47
2018-07-04T10:02:07.723Z,933.50
2018-07-04T10:03:07.685Z,933.64
2018-07-04T10:04:07.640Z,933.64
2018-07-04T10:05:07.599Z,933.70
2018-07-04T10:06:07.546Z,933.79
2018-07-04T10:07:07.492Z,933.79
2018-07-04T10:08:07.445Z,933.86
2018-07-04T10:09:07.405Z,933.97
2018-07-04T10:10:07.378Z,933.99
2018-07-04T10:11:07.331Z,934.14
2018-07-04T10:12:07.259Z,934.16
2018-07-04T10:13:07.232Z,934.17
2018-07-04T10:14:07.186Z,934.12
2018-07-04T10:15:07.147Z,934.10
2018-07-04T10:16:07.069Z,934.12
2018-07-04T10:17:07.048Z,934.14
2018-07-04T10:18:07.004Z,934.23
2018-07-04T10:19:06.942Z,934.25
2018-07-04T10:20:06.892Z,934.27
2018-07-04T10:21:06.834Z,934.24
2018-07-04T10:22:06.823Z,934.26
2018-07-04T10:23:06.768Z,934.27
2018-07-04T10:24:06.696Z,934.31
2018-07-04T10:25:06.644Z,934.40
2018-07-04T10:26:06.614Z,934.42
2018-07-04T10:27:06.556Z,934.41
2018-07-04T10:28:06.530Z,934.34
2018-07-04T10:29:06.478Z,934.37
2018-07-04T10:30:06.460Z,934.32
2018-07-04T10:31:06.383Z,934.30
2018-07-04T10:32:06.330Z,934.29
2018-07-04T10:33:06.298Z,934.22
2018-07-04T10:34:06.261Z,934.25
2018-07-04T10:35:06.195Z,934.25
2018-07-04T10:36:06.172Z,934.27
2018-07-04T10:37:06.104Z,934.33
2018-07-04T10:38:06.047Z,934.33
2018-07-04T10:39:05.999Z,934.38
2018-07-04T10:40:05.953Z,934.42
2018-07-04T10:41:05.908Z,934.45
2018-07-04T10:42:05.912Z,934.54
2018-07-04T10:43:05.844Z,934.54
2018-07-04T10:44:05.793Z,934.49
2018-07-04T10:45:05.751Z,934.51
2018-07-04T10:46:05.679Z,934.51
2018-07-04T10:47:05.630Z,934.54
2018-07-04T10:48:05.594Z,934.54
2018-07-04T10:49:05.548Z,934.51
2018-07-04T10:50:05.514Z,934.51
2018-07-04T10:51:05.514Z,934.54
2018-07-04T10:52:05.414Z,934.55
2018-07-04T10:53:05.369Z,934.52
2018-07-04T10:54:05.343Z,934.54
2018-07-04T10:55:05.283Z,934.57
2018-07-04T10:56:05.215Z,934.62
2018-07-04T10:57:05.161Z,934.60
2018-07-04T10:58:05.120Z,934.58
2018-07-04T10:59:05.099Z,934.59
2018-07-04T11:00:05.051Z,934.57
2018-07-04T11:01:04.986Z,934.53
2018-07-04T11:02:04.955Z,934.57
2018-07-04T11:03:04.927Z,934.55
2018-07-04T11:04:04.835Z,934.59
2018-07-04T11:05:04.816Z,934.60
2018-07-04T11:06:04.748Z,934.59
2018-07-04T11:07:04.716Z,934.60
2018-07-04T11:08:04.681Z,934.63
2018-07-04T11:09:04.631Z,934.59
2018-07-04T11:10:04.571Z,934.62
2018-07-04T11:11:04.513Z,934.62
2018-07-04T11:12:04.482Z,934.63
2018-07-04T11:13:04.440Z,934.60
2018-07-04T11:14:04.373Z,934.62
2018-07-04T11:15:04.336Z,934.63
2018-07-04T11:16:04.284Z,934.59
2018-07-04T11:17:04.412Z,934.60
2018-07-04T11:18:04.208Z,934.58
2018-07-04T11:19:04.163Z,934.56
2018-07-04T11:20:04.115Z,934.55
2018-07-04T11:21:04.073Z,934.56
2018-07-04T11:22:04.003Z,934.62
2018-07-04T11:23:03.981Z,934.60
2018-07-04T11:24:03.919Z,934.63
2018-07-04T11:25:03.885Z,934.64
2018-07-04T11:26:03.826Z,934.62
2018-07-04T11:27:03.762Z,934.68
2018-07-04T11:28:03.718Z,934.67
2018-07-04T11:29:03.681Z,934.65
2018-07-04T11:30:03.640Z,934.62
2018-07-04T11:31:03.647Z,934.58
2018-07-04T11:32:03.557Z,934.55
2018-07-04T11:33:03.498Z,934.55
2018-07-04T11:34:03.436Z,934.61
2018-07-04T11:35:03.393Z,934.59
2018-07-04T11:36:03.344Z,934.61
2018-07-04T11:37:03.313Z,934.58
2018-07-04T11:38:03.256Z,934.60
2018-07-04T11:39:03.220Z,934.62
2018-07-04T11:40:03.171Z,934.58
2018-07-04T11:41:03.108Z,934.60
2018-07-04T11:42:03.065Z,934.61
2018-07-04T11:43:03.019Z,934.63
2018-07-04T11:44:03.000Z,934.65
2018-07-04T11:45:02.956Z,934.67
2018-07-04T11:46:02.878Z,934.67
2018-07-04T11:47:02.839Z,934.67
2018-07-04T11:48:02.805Z,934.66
2018-07-04T11:49:02.770Z,934.67
2018-07-04T11:50:02.696Z,934.71
2018-07-04T11:51:02.677Z,934.75
2018-07-04T11:52:02.630Z,934.74
2018-07-04T11:53:02.568Z,934.72
2018-07-04T11:54:02.509Z,934.79
2018-07-04T11:55:02.486Z,934.77
2018-07-04T11:56:02.414Z,934.80
2018-07-04T11:57:02.661Z,934.84
2018-07-04T11:58:02.504Z,934.84
2018-07-04T11:59:02.280Z,934.86
2018-07-04T12:00:02.234Z,934.84
2018-07-04T12:01:02.214Z,934.81
2018-07-04T12:02:02.142Z,934.75
2018-07-04T12:03:02.110Z,934.75
2018-07-04T12:04:02.046Z,934.74
2018-07-04T12:05:02.015Z,934.76
2018-07-04T12:06:01.981Z,934.78
2018-07-04T12:07:01.909Z,934.83
2018-07-04T12:08:01.866Z,934.84
2018-07-04T12:09:01.823Z,934.81
2018-07-04T12:10:01.784Z,934.83
2018-07-04T12:11:01.818Z,934.76
2018-07-04T12:12:01.685Z,934.75
2018-07-04T12:13:01.634Z,934.76
2018-07-04T12:14:01.601Z,934.77
2018-07-04T12:15:01.546Z,934.81
2018-07-04T12:16:01.493Z,934.80
2018-07-04T12:17:01.442Z,934.83
2018-07-04T12:18:01.412Z,934.83
2018-07-04T12:19:01.380Z,934.82
2018-07-04T12:20:01.323Z,934.79
2018-07-04T12:21:01.359Z,934.82
2018-07-04T12:22:01.227Z,934.82
2018-07-04T12:23:01.162Z,934.76
2018-07-04T12:24:01.149Z,934.77
2018-07-04T12:25:01.086Z,934.74
2018-07-04T12:26:01.043Z,934.71
2018-07-04T12:27:01.034Z,934.68
2018-07-04T12:28:00.936Z,934.61